createdAt,value
2017-08-05T00:01:56.231Z,24.36
2017-08-05T00:04:20.488Z,24.18
2017-08-05T00:06:44.720Z,24.07
2017-08-05T00:09:08.938Z,24.1
2017-08-05T00:11:33.149Z,24.04
2017-08-05T00:13:57.379Z,23.96
2017-08-05T00:16:21.609Z,23.77
2017-08-05T00:18:45.841Z,23.89
2017-08-05T00:21:01.564Z,23.77
2017-08-05T00:23:25.772Z,23.56
2017-08-05T00:25:24.639Z,23.67
2017-08-05T00:27:48.838Z,23.74
2017-08-05T00:30:13.033Z,23.79
2017-08-05T00:32:37.236Z,23.85
2017-08-05T00:35:01.409Z,23.7
2017-08-05T00:37:25.640Z,23.47
2017-08-05T00:39:49.787Z,23.52
2017-08-05T00:42:13.996Z,23.45
2017-08-05T00:44:38.202Z,23.4
2017-08-05T00:47:02.359Z,23.48
2017-08-05T00:49:26.538Z,23.48
2017-08-05T00:51:50.708Z,23.69
2017-08-05T00:54:14.858Z,23.55
2017-08-05T00:56:30.572Z,23.51
2017-08-05T00:58:37.857Z,23.32
2017-08-05T01:01:01.985Z,23.07
2017-08-05T01:03:26.152Z,22.68
2017-08-05T01:05:50.309Z,22.88
2017-08-05T01:08:14.476Z,22.88
2017-08-05T01:10:30.990Z,22.92
2017-08-05T01:12:54.363Z,22.91
2017-08-05T01:15:10.090Z,22.78
2017-08-05T01:17:34.232Z,22.77
2017-08-05T01:19:58.300Z,23.16
2017-08-05T01:22:13.976Z,23.18
2017-08-05T01:24:29.640Z,23.21
2017-08-05T01:26:53.746Z,23.16
2017-08-05T01:28:55.132Z,23.26
2017-08-05T01:31:19.254Z,23.25
2017-08-05T01:33:20.601Z,22.92
2017-08-05T01:35:44.771Z,22.77
2017-08-05T01:38:08.924Z,23.06
2017-08-05T01:40:24.637Z,23.21
2017-08-05T01:42:26.564Z,23.37
2017-08-05T01:44:42.300Z,23.32
2017-08-05T01:47:06.436Z,23.44
2017-08-05T01:49:22.141Z,23.34
2017-08-05T01:51:37.821Z,23.08
2017-08-05T01:54:01.937Z,23.29
2017-08-05T01:56:26.072Z,23.2
2017-08-05T01:58:50.226Z,23.21
2017-08-05T02:01:14.403Z,23.25
2017-08-05T02:03:38.587Z,23.06
2017-08-05T02:06:02.736Z,23.26
2017-08-05T02:08:18.439Z,23.21
2017-08-05T02:10:42.574Z,23.2
2017-08-05T02:13:06.727Z,22.99
2017-08-05T02:15:30.891Z,22.96
2017-08-05T02:17:55.053Z,23.07
2017-08-05T02:20:19.251Z,23.18
2017-08-05T02:22:43.453Z,23.16
2017-08-05T02:25:07.613Z,23.36
2017-08-05T02:27:09.004Z,23.14
2017-08-05T02:29:33.269Z,22.99
2017-08-05T02:31:17.514Z,23.18
2017-08-05T02:33:41.707Z,23.07
2017-08-05T02:36:05.815Z,23.17
2017-08-05T02:38:21.518Z,23.04
2017-08-05T02:40:37.201Z,22.95
2017-08-05T02:42:44.439Z,22.62
2017-08-05T02:45:08.566Z,22.83
2017-08-05T02:47:32.688Z,22.88
2017-08-05T02:49:48.348Z,22.91
2017-08-05T02:52:12.485Z,22.95
2017-08-05T02:54:28.170Z,22.84
2017-08-05T02:56:52.295Z,23.01
2017-08-05T02:59:16.375Z,23.11
2017-08-05T03:01:40.508Z,23.08
2017-08-05T03:04:04.623Z,23.11
2017-08-05T03:06:20.312Z,23.29
2017-08-05T03:08:44.461Z,23.44
2017-08-05T03:11:08.596Z,23.52
2017-08-05T03:13:32.756Z,23.7
2017-08-05T03:15:56.908Z,23.73
2017-08-05T03:18:12.606Z,23.77
2017-08-05T03:20:28.286Z,23.59
2017-08-05T03:22:52.426Z,23.73
2017-08-05T03:25:16.540Z,23.66
2017-08-05T03:27:40.658Z,23.63
2017-08-05T03:29:56.326Z,23.7
2017-08-05T03:32:20.487Z,23.54
2017-08-05T03:34:44.657Z,23.39
2017-08-05T03:37:08.818Z,23.56
2017-08-05T03:39:32.960Z,23.39
2017-08-05T03:41:48.675Z,23.55
2017-08-05T03:44:12.848Z,23.42
2017-08-05T03:46:36.973Z,23.29
2017-08-05T03:49:01.128Z,23.08
2017-08-05T03:51:25.286Z,23.1
2017-08-05T03:53:49.443Z,23.17
2017-08-05T03:56:13.607Z,23.07
2017-08-05T03:58:37.773Z,23.02
2017-08-05T04:01:01.962Z,22.84
2017-08-05T04:03:26.125Z,22.89
2017-08-05T04:05:41.841Z,22.89
2017-08-05T04:08:05.969Z,22.93
2017-08-05T04:10:30.107Z,22.65
2017-08-05T04:12:45.766Z,22.47
2017-08-05T04:14:47.152Z,22.61
2017-08-05T04:17:11.298Z,22.61
2017-08-05T04:19:35.427Z,22.76
2017-08-05T04:21:51.086Z,23.13
2017-08-05T04:24:15.196Z,22.92
2017-08-05T04:26:22.417Z,22.77
2017-08-05T04:28:46.521Z,22.65
2017-08-05T04:31:02.196Z,22.8
2017-08-05T04:33:26.308Z,22.91
2017-08-05T04:35:50.373Z,22.78
2017-08-05T04:38:14.472Z,23.11
2017-08-05T04:40:38.600Z,23.21
2017-08-05T04:42:54.278Z,23.32
2017-08-05T04:45:18.370Z,23.44
2017-08-05T04:47:42.502Z,23.82
2017-08-05T04:50:06.684Z,24.06
2017-08-05T04:52:22.417Z,25
2017-08-05T04:54:46.588Z,26.39
2017-08-05T04:57:10.852Z,27.64
2017-08-05T04:59:21.335Z,27.93
2017-08-05T05:01:45.760Z,28.35
2017-08-05T05:04:10.224Z,29.89
2017-08-05T05:06:34.736Z,29.18
2017-08-05T05:08:59.206Z,28.34
2017-08-05T05:11:23.761Z,27.44
2017-08-05T05:13:48.292Z,27.33
2017-08-05T05:16:12.816Z,29
2017-08-05T05:18:37.430Z,32.45
2017-08-05T05:21:02.151Z,32.6
2017-08-05T05:23:26.952Z,31.42
2017-08-05T05:25:51.728Z,32.88
2017-08-05T05:28:16.702Z,32.81
2017-08-05T05:30:41.629Z,33.94
2017-08-05T05:32:43.636Z,33.08
2017-08-05T05:35:08.723Z,32.61
2017-08-05T05:37:33.791Z,35.49
2017-08-05T05:39:58.780Z,33.35
2017-08-05T05:42:23.757Z,31.93
2017-08-05T05:44:48.693Z,30.83
2017-08-05T05:46:50.293Z,30.83
2017-08-05T05:49:15.274Z,30.77
2017-08-05T05:51:31.691Z,30.51
2017-08-05T05:53:42.331Z,33.54
2017-08-05T05:55:58.793Z,33.31
2017-08-05T05:58:23.815Z,33.47
2017-08-05T06:00:48.802Z,33.61
2017-08-05T06:02:50.895Z,32.94
2017-08-05T06:05:07.478Z,35.87
2017-08-05T06:07:32.577Z,36.94
2017-08-05T06:09:49.322Z,40.52
2017-08-05T06:12:14.700Z,37.09
2017-08-05T06:14:40.122Z,34.89
2017-08-05T06:17:05.633Z,39.37
2017-08-05T06:19:31.194Z,42.15
2017-08-05T06:21:56.690Z,44.65
2017-08-05T06:24:22.551Z,47.64
2017-08-05T06:26:48.544Z,48.58
2017-08-05T06:29:14.694Z,49.81
2017-08-05T06:31:41.035Z,51.63
2017-08-05T06:34:07.646Z,49.98
2017-08-05T06:36:34.171Z,51.83
2017-08-05T06:39:01.069Z,53.63
2017-08-05T06:41:27.980Z,55.28
2017-08-05T06:43:54.998Z,56.94
2017-08-05T06:46:22.253Z,58.72
2017-08-05T06:48:49.841Z,59.43
2017-08-05T06:50:26.292Z,58.09
2017-08-05T06:52:53.917Z,59.81
2017-08-05T06:55:21.654Z,59.8
2017-08-05T06:57:49.468Z,60.57
2017-08-05T07:00:17.334Z,60.22
2017-08-05T07:02:36.588Z,59.39
2017-08-05T07:05:04.531Z,59.91
2017-08-05T07:07:32.566Z,56.63
2017-08-05T07:10:00.808Z,50.4
2017-08-05T07:12:28.643Z,48.36
2017-08-05T07:14:56.525Z,46.53
2017-08-05T07:17:27.137Z,46.05
2017-08-05T07:19:54.655Z,45.48
2017-08-05T07:21:57.283Z,45.14
2017-08-05T07:24:24.619Z,43.31
2017-08-05T07:26:51.762Z,43.43
2017-08-05T07:29:19.266Z,43.08
2017-08-05T07:31:46.020Z,41.71
2017-08-05T07:34:12.616Z,41.88
2017-08-05T07:36:39.187Z,41.44
2017-08-05T07:39:05.602Z,41.45
2017-08-05T07:41:35.045Z,41.36
2017-08-05T07:44:02.484Z,42.24
2017-08-05T07:46:04.879Z,43.28
2017-08-05T07:48:31.145Z,43.94
2017-08-05T07:50:57.394Z,43.91
2017-08-05T07:53:15.059Z,45.37
2017-08-05T07:55:32.722Z,43.69
2017-08-05T07:57:58.940Z,42.28
2017-08-05T08:00:16.603Z,42.4
2017-08-05T08:02:42.871Z,41.88
2017-08-05T08:05:01.370Z,43.65
2017-08-05T08:07:27.697Z,43.09
2017-08-05T08:09:54.045Z,42.71
2017-08-05T08:12:20.473Z,39.49
2017-08-05T08:14:46.953Z,42.84
2017-08-05T08:17:13.306Z,41.95
2017-08-05T08:19:39.585Z,41.91
2017-08-05T08:22:06.385Z,42.52
2017-08-05T08:24:32.812Z,43.11
2017-08-05T08:26:59.095Z,42.78
2017-08-05T08:29:25.468Z,44.21
2017-08-05T08:31:51.831Z,42.61
2017-08-05T08:34:18.142Z,42.65
2017-08-05T08:36:44.571Z,42.12
2017-08-05T08:39:10.956Z,38.88
2017-08-05T08:41:37.614Z,40.14
2017-08-05T08:43:49.320Z,40.04
2017-08-05T08:46:15.693Z,38.79
2017-08-05T08:48:42.299Z,39.03
2017-08-05T08:51:14.509Z,36.84
2017-08-05T08:53:40.851Z,34.6
2017-08-05T08:56:06.903Z,35.66
2017-08-05T08:58:33.856Z,34.85
2017-08-05T09:01:06.665Z,35.18
2017-08-05T09:03:32.431Z,34.53
2017-08-05T09:05:58.096Z,35.53
2017-08-05T09:08:23.619Z,35.44
2017-08-05T09:10:49.132Z,36.63
2017-08-05T09:13:14.734Z,35.91
2017-08-05T09:15:40.618Z,35.82
2017-08-05T09:17:57.876Z,35.07
2017-08-05T09:20:23.238Z,35.71
2017-08-05T09:22:48.633Z,35.08
2017-08-05T09:25:14.887Z,35.34
2017-08-05T09:27:40.554Z,35.07
2017-08-05T09:30:06.111Z,36.28
2017-08-05T09:32:31.696Z,33.45
2017-08-05T09:34:57.382Z,34.6
2017-08-05T09:37:22.889Z,33.33
2017-08-05T09:39:48.339Z,34.32
2017-08-05T09:42:13.822Z,33.72
2017-08-05T09:44:39.241Z,33.95
2017-08-05T09:46:50.465Z,33.58
2017-08-05T09:49:15.600Z,33.7
2017-08-05T09:51:40.868Z,34.97
2017-08-05T09:54:06.238Z,35.23
2017-08-05T09:56:31.655Z,35.03
2017-08-05T09:58:57.639Z,34.76
2017-08-05T10:01:23.121Z,35.08
2017-08-05T10:03:48.914Z,33.47
2017-08-05T10:06:15.142Z,33.4
2017-08-05T10:08:40.910Z,33.42
2017-08-05T10:11:06.249Z,33.7
2017-08-05T10:13:31.776Z,32.85
2017-08-05T10:15:57.088Z,32.85
2017-08-05T10:18:22.666Z,33.26
2017-08-05T10:20:47.754Z,31.89
2017-08-05T10:23:12.964Z,32.24
2017-08-05T10:25:38.128Z,32.09
2017-08-05T10:28:03.291Z,32.45
2017-08-05T10:30:28.504Z,32.56
2017-08-05T10:32:53.607Z,32.04
2017-08-05T10:35:18.706Z,32.27
2017-08-05T10:37:35.298Z,31.57
2017-08-05T10:40:00.384Z,32.02
2017-08-05T10:42:02.058Z,31.97
2017-08-05T10:44:27.160Z,32.49
2017-08-05T10:46:52.276Z,32.63
2017-08-05T10:49:17.369Z,33.35
2017-08-05T10:51:42.502Z,32.81
2017-08-05T10:54:07.591Z,32.86
2017-08-05T10:56:32.738Z,32.73
2017-08-05T10:58:49.363Z,32.72
2017-08-05T11:01:14.493Z,33.42
2017-08-05T11:03:50.618Z,32.66
2017-08-05T11:06:15.769Z,32.07
2017-08-05T11:08:40.896Z,31.47
2017-08-05T11:11:06.041Z,30.98
2017-08-05T11:13:31.093Z,31.2
2017-08-05T11:15:56.091Z,30.71
2017-08-05T11:18:21.129Z,30.86
2017-08-05T11:20:46.345Z,30.7
2017-08-05T11:23:13.808Z,30.17
2017-08-05T11:25:38.771Z,30.01
2017-08-05T11:28:03.628Z,29.53
2017-08-05T11:30:28.620Z,29.16
2017-08-05T11:32:53.547Z,28.87
2017-08-05T11:35:03.731Z,28.84
2017-08-05T11:37:28.930Z,28.19
2017-08-05T11:39:45.230Z,28.3
2017-08-05T11:42:10.312Z,27.76
2017-08-05T11:44:35.001Z,27.35
2017-08-05T11:46:59.729Z,27.45
2017-08-05T11:49:24.414Z,27.9
2017-08-05T11:51:49.057Z,28.16
2017-08-05T11:53:56.783Z,28.25
2017-08-05T11:56:21.463Z,28.04
2017-08-05T11:58:46.160Z,28.19
2017-08-05T12:01:10.798Z,27.82
2017-08-05T12:03:35.475Z,28.25
2017-08-05T12:06:00.113Z,28.34
2017-08-05T12:08:24.726Z,28.86
2017-08-05T12:10:49.375Z,29.3
2017-08-05T12:13:14.040Z,29.67
2017-08-05T12:15:38.716Z,29.42
2017-08-05T12:18:03.429Z,29.92
2017-08-05T12:20:19.723Z,30.49
2017-08-05T12:22:44.501Z,30.8
2017-08-05T12:24:46.579Z,30.74
2017-08-05T12:27:11.439Z,30.52
2017-08-05T12:29:36.214Z,29.98
2017-08-05T12:31:12.046Z,29.43
2017-08-05T12:33:36.833Z,29.28
2017-08-05T12:35:53.146Z,28.68
2017-08-05T12:38:17.898Z,28.08
2017-08-05T12:40:42.573Z,27.82
2017-08-05T12:43:07.249Z,27.91
2017-08-05T12:45:31.900Z,27.61
2017-08-05T12:47:56.621Z,27.45
2017-08-05T12:50:21.187Z,27.19
2017-08-05T12:52:45.856Z,27.48
2017-08-05T12:55:10.513Z,27.35
2017-08-05T12:57:35.188Z,27.88
2017-08-05T12:59:59.773Z,27.97
2017-08-05T13:02:24.367Z,28.31
2017-08-05T13:04:48.963Z,28.52
2017-08-05T13:07:13.593Z,28.34
2017-08-05T13:09:29.707Z,28.9
2017-08-05T13:11:54.387Z,29.53
2017-08-05T13:14:19.046Z,29.89
2017-08-05T13:16:43.852Z,30.2
2017-08-05T13:19:08.587Z,29.8
2017-08-05T13:21:33.337Z,29.16
2017-08-05T13:23:58.018Z,29.09
2017-08-05T13:26:22.751Z,29.06
2017-08-05T13:28:24.856Z,29.03
2017-08-05T13:30:49.710Z,28.93
2017-08-05T13:33:14.317Z,28.92
2017-08-05T13:35:16.318Z,28.96
2017-08-05T13:37:41.058Z,29.28
2017-08-05T13:40:05.782Z,29.3
2017-08-05T13:42:30.509Z,29.55
2017-08-05T13:44:55.239Z,29.62
2017-08-05T13:47:11.472Z,29.28
2017-08-05T13:49:36.167Z,29.1
2017-08-05T13:52:00.861Z,28.93
2017-08-05T13:54:02.889Z,28.78
2017-08-05T13:56:27.619Z,28.38
2017-08-05T13:58:52.203Z,29.09
2017-08-05T14:01:16.838Z,29.5
2017-08-05T14:03:18.854Z,29.64
2017-08-05T14:05:44.536Z,29.99
2017-08-05T14:08:09.282Z,29.73
2017-08-05T14:10:34.031Z,29.74
2017-08-05T14:12:58.758Z,29.89
2017-08-05T14:15:23.507Z,29.94
2017-08-05T14:17:48.253Z,29.43
2017-08-05T14:20:12.988Z,29.89
2017-08-05T14:22:37.727Z,30.27
2017-08-05T14:25:02.436Z,30.05
2017-08-05T14:27:18.664Z,29.12
2017-08-05T14:29:43.402Z,29.4
2017-08-05T14:32:08.144Z,29.4
2017-08-05T14:34:32.845Z,29.12
2017-08-05T14:36:57.672Z,29.28
2017-08-05T14:39:13.940Z,29.61
2017-08-05T14:41:38.656Z,29.74
2017-08-05T14:44:03.356Z,29.46
2017-08-05T14:46:28.122Z,29.71
2017-08-05T14:48:52.896Z,29.84
2017-08-05T14:51:17.680Z,29.89
2017-08-05T14:53:33.960Z,29.8
2017-08-05T14:55:58.620Z,30.36
2017-08-05T14:58:23.431Z,30.69
2017-08-05T15:00:48.165Z,30.4
2017-08-05T15:03:12.979Z,30.52
2017-08-05T15:05:37.777Z,30.63
2017-08-05T15:08:02.591Z,30.38
2017-08-05T15:10:27.390Z,30.35
2017-08-05T15:12:52.204Z,29.89
2017-08-05T15:15:16.984Z,29.76
2017-08-05T15:17:41.737Z,29.89
2017-08-05T15:20:06.554Z,29.84
2017-08-05T15:22:31.329Z,30.02
2017-08-05T15:24:56.142Z,30.14
2017-08-05T15:27:20.902Z,29.84
2017-08-05T15:29:31.536Z,29.34
2017-08-05T15:31:56.376Z,29.37
2017-08-05T15:34:21.155Z,29.9
2017-08-05T15:36:23.235Z,29.68
2017-08-05T15:38:48.054Z,30.1
2017-08-05T15:41:12.820Z,29.79
2017-08-05T15:43:29.071Z,29.44
2017-08-05T15:45:53.797Z,29.77
2017-08-05T15:48:18.587Z,29.89
2017-08-05T15:50:43.371Z,30.44
2017-08-05T15:53:08.169Z,30.26
2017-08-05T15:55:32.934Z,29.76
2017-08-05T15:57:09.292Z,29.8
2017-08-05T15:59:34.123Z,29.62
2017-08-05T16:01:58.867Z,29.59
2017-08-05T16:04:23.612Z,29.71
2017-08-05T16:06:48.361Z,29.68
2017-08-05T16:09:13.146Z,29.2
2017-08-05T16:11:37.896Z,28.82
2017-08-05T16:14:02.608Z,29.12
2017-08-05T16:16:27.340Z,28.7
2017-08-05T16:18:52.017Z,28.82
2017-08-05T16:21:16.647Z,28.71
2017-08-05T16:23:41.269Z,28.83
2017-08-05T16:26:05.949Z,28.31
2017-08-05T16:28:30.675Z,28.25
2017-08-05T16:30:55.279Z,28.38
2017-08-05T16:33:19.997Z,27.97
2017-08-05T16:35:44.599Z,28.03
2017-08-05T16:38:09.198Z,28.1
2017-08-05T16:40:33.838Z,28.25
2017-08-05T16:42:58.492Z,28.34
2017-08-05T16:45:23.130Z,28.57
2017-08-05T16:47:47.713Z,28.53
2017-08-05T16:50:12.420Z,28
2017-08-05T16:52:37.017Z,27.91
2017-08-05T16:55:01.652Z,27.75
2017-08-05T16:57:26.225Z,27.93
2017-08-05T16:59:50.840Z,27.78
2017-08-05T17:02:15.433Z,27.85
2017-08-05T17:04:39.999Z,27.55
2017-08-05T17:07:04.600Z,27.41
2017-08-05T17:09:29.200Z,27.28
2017-08-05T17:11:53.741Z,27.52
2017-08-05T17:14:03.782Z,27.38
2017-08-05T17:16:28.338Z,27.38
2017-08-05T17:18:44.472Z,26.93
2017-08-05T17:21:09.030Z,26.82
2017-08-05T17:23:25.113Z,26.61
2017-08-05T17:25:41.183Z,26.86
2017-08-05T17:28:05.699Z,26.85
2017-08-05T17:30:30.168Z,26.78
2017-08-05T17:32:54.647Z,26.85
2017-08-05T17:35:19.096Z,26.53
2017-08-05T17:37:43.594Z,26.55
2017-08-05T17:40:08.080Z,26.74
2017-08-05T17:42:32.523Z,26.82
2017-08-05T17:44:57.028Z,26.73
2017-08-05T17:47:13.002Z,26.81
2017-08-05T17:49:37.494Z,26.93
2017-08-05T17:52:01.966Z,27.03
2017-08-05T17:54:26.447Z,26.97
2017-08-05T17:56:50.906Z,26.56
2017-08-05T17:59:15.387Z,26.29
2017-08-05T18:01:39.868Z,26.39
2017-08-05T18:04:04.356Z,26.03
2017-08-05T18:06:28.822Z,25.89
2017-08-05T18:08:53.284Z,25.99
2017-08-05T18:11:17.693Z,25.74
2017-08-05T18:13:42.127Z,25.74
2017-08-05T18:16:06.495Z,25.7
2017-08-05T18:18:31.581Z,25.77
2017-08-05T18:20:56.019Z,25.92
2017-08-05T18:23:20.403Z,26.19
2017-08-05T18:25:44.891Z,26.19
2017-08-05T18:28:09.267Z,26.19
2017-08-05T18:30:33.684Z,26.16
2017-08-05T18:32:58.071Z,26.01
2017-08-05T18:35:22.499Z,25.62
2017-08-05T18:37:46.854Z,25.54
2017-08-05T18:40:11.228Z,25.44
2017-08-05T18:42:35.628Z,25.39
2017-08-05T18:44:51.565Z,25.19
2017-08-05T18:47:15.895Z,25
2017-08-05T18:49:31.726Z,25.06
2017-08-05T18:51:56.035Z,25.09
2017-08-05T18:54:20.389Z,25.07
2017-08-05T18:56:44.690Z,25.09
2017-08-05T18:59:09.060Z,24.96
2017-08-05T19:01:33.468Z,24.71
2017-08-05T19:03:09.223Z,24.84
2017-08-05T19:05:33.555Z,25.03
2017-08-05T19:07:57.874Z,24.84
2017-08-05T19:10:22.191Z,24.88
2017-08-05T19:12:24.190Z,24.81
2017-08-05T19:14:40.091Z,24.82
2017-08-05T19:17:04.433Z,24.79
2017-08-05T19:19:28.733Z,24.69
2017-08-05T19:21:53.049Z,24.84
2017-08-05T19:24:17.371Z,24.61
2017-08-05T19:26:41.692Z,24.56
2017-08-05T19:29:06.004Z,24.82
2017-08-05T19:31:30.307Z,24.71
2017-08-05T19:33:54.635Z,24.66
2017-08-05T19:36:18.964Z,24.59
2017-08-05T19:38:43.272Z,24.44
2017-08-05T19:41:07.578Z,24.58
2017-08-05T19:43:23.438Z,24.58
2017-08-05T19:45:47.711Z,24.46
2017-08-05T19:48:12.027Z,24.46
2017-08-05T19:50:36.291Z,24.36
2017-08-05T19:52:38.208Z,24.29
2017-08-05T19:55:02.521Z,24.24
2017-08-05T19:57:04.401Z,24.24
2017-08-05T19:59:28.744Z,24.03
2017-08-05T20:01:53.017Z,23.96
2017-08-05T20:04:17.283Z,24.14
2017-08-05T20:06:41.498Z,24.16
2017-08-05T20:09:05.737Z,23.96
2017-08-05T20:11:29.995Z,24.03
2017-08-05T20:13:54.231Z,24.01
2017-08-05T20:16:18.455Z,23.73
2017-08-05T20:18:42.662Z,23.7
2017-08-05T20:21:06.870Z,23.56
2017-08-05T20:23:31.078Z,23.32
2017-08-05T20:25:55.305Z,23.47
2017-08-05T20:28:19.499Z,23.48
2017-08-05T20:30:43.726Z,23.45
2017-08-05T20:32:51.063Z,23.52
2017-08-05T20:35:15.312Z,23.63
2017-08-05T20:37:39.495Z,23.62
2017-08-05T20:40:03.741Z,23.47
2017-08-05T20:42:27.910Z,23.55
2017-08-05T20:44:52.109Z,23.4
2017-08-05T20:47:16.327Z,23.28
2017-08-05T20:49:40.535Z,23.32
2017-08-05T20:52:04.748Z,23.34
2017-08-05T20:54:28.982Z,23.2
2017-08-05T20:56:53.197Z,23.23
2017-08-05T20:59:17.376Z,23.34
2017-08-05T21:01:41.545Z,23.34
2017-08-05T21:03:57.301Z,23.44
2017-08-05T21:06:21.507Z,23.33
2017-08-05T21:08:45.737Z,23.32
2017-08-05T21:11:09.935Z,23.34
2017-08-05T21:13:34.143Z,23.21
2017-08-05T21:15:36.056Z,23.33
2017-08-05T21:18:00.294Z,23.26
2017-08-05T21:20:24.511Z,23.25
2017-08-05T21:22:48.684Z,22.99
2017-08-05T21:25:12.883Z,22.89
2017-08-05T21:27:37.043Z,23.07
2017-08-05T21:30:01.171Z,22.86
2017-08-05T21:32:25.343Z,22.73
2017-08-05T21:34:49.456Z,22.51
2017-08-05T21:37:13.604Z,22.68
2017-08-05T21:39:37.768Z,22.71
2017-08-05T21:42:01.925Z,22.61
2017-08-05T21:44:26.095Z,22.52
2017-08-05T21:46:50.237Z,22.52
2017-08-05T21:49:14.325Z,22.68
2017-08-05T21:51:38.436Z,22.49
2017-08-05T21:54:02.569Z,22.52
2017-08-05T21:56:26.697Z,22.53
2017-08-05T21:58:50.842Z,22.56
2017-08-05T22:00:58.119Z,22.63
2017-08-05T22:03:22.272Z,22.46
2017-08-05T22:05:46.405Z,22.4
2017-08-05T22:08:10.541Z,22.47
2017-08-05T22:10:12.441Z,22.36
2017-08-05T22:12:36.560Z,22.36
2017-08-05T22:14:52.259Z,22.49
2017-08-05T22:17:07.916Z,22.4
2017-08-05T22:19:31.995Z,22.58
2017-08-05T22:21:56.133Z,22.4
2017-08-05T22:24:20.249Z,22.47
2017-08-05T22:26:44.359Z,22.41
2017-08-05T22:29:08.453Z,22.36
2017-08-05T22:31:32.515Z,22.52
2017-08-05T22:33:48.179Z,22.47
2017-08-05T22:36:12.266Z,22.3
2017-08-05T22:38:27.959Z,22.31
2017-08-05T22:40:52.084Z,22.23
2017-08-05T22:43:16.166Z,22.43
2017-08-05T22:45:40.328Z,22.51
2017-08-05T22:48:04.400Z,22.36
2017-08-05T22:50:28.528Z,22.65
2017-08-05T22:52:52.632Z,22.43
2017-08-05T22:55:08.230Z,22.22
2017-08-05T22:57:32.310Z,22.12
2017-08-05T22:59:25.753Z,22.19
2017-08-05T23:01:49.814Z,21.97
2017-08-05T23:04:05.492Z,22.03
2017-08-05T23:06:29.574Z,22
2017-08-05T23:08:45.204Z,22.03
2017-08-05T23:11:09.297Z,21.94
2017-08-05T23:13:24.850Z,21.96
2017-08-05T23:15:40.502Z,21.97
2017-08-05T23:17:42.355Z,21.97
2017-08-05T23:20:06.424Z,21.88
2017-08-05T23:22:30.501Z,21.8
2017-08-05T23:24:32.369Z,21.96
2017-08-05T23:26:56.479Z,21.8
2017-08-05T23:29:20.532Z,21.88
2017-08-05T23:31:44.576Z,21.99
2017-08-05T23:34:08.621Z,22.01
2017-08-05T23:36:32.652Z,21.97
2017-08-05T23:38:48.307Z,21.83
2017-08-05T23:41:12.338Z,21.96
2017-08-05T23:43:36.417Z,22.12
2017-08-05T23:46:00.415Z,22.25
2017-08-05T23:48:24.474Z,22.38
2017-08-05T23:50:48.582Z,22.22
2017-08-05T23:53:12.638Z,22.44
2017-08-05T23:55:36.559Z,22.38
2017-08-05T23:58:00.581Z,22.34
